sensor_id;sensor_type;location;lat;lon;timestamp;P1;durP1;ratioP1;P2;durP2;ratioP2
3817;SDS011;1924;48.078;11.516;2023-04-24T04:01:02;29.70;;;0.80;;
3817;SDS011;1924;48.078;11.516;2023-04-24T04:03:29;29.47;;;0.80;;
3817;SDS011;1924;48.078;11.516;2023-04-24T04:05:55;29.80;;;0.80;;
3817;SDS011;1924;48.078;11.516;2023-04-24T04:08:22;29.60;;;0.80;;
3817;SDS011;1924;48.078;11.516;2023-04-24T04:10:49;29.50;;;0.80;;
3817;SDS011;1924;48.078;11.516;2023-04-24T04:13:15;29.60;;;0.80;;
3817;SDS011;1924;48.078;11.516;2023-04-24T04:15:42;29.60;;;0.80;;
3817;SDS011;1924;48.078;11.516;2023-04-24T04:18:10;29.60;;;0.80;;
3817;SDS011;1924;48.078;11.516;2023-04-24T04:20:37;29.40;;;0.80;;
3817;SDS011;1924;48.078;11.516;2023-04-24T04:23:03;29.70;;;0.80;;
3817;SDS011;1924;48.078;11.516;2023-04-24T04:25:30;29.50;;;0.80;;
3817;SDS011;1924;48.078;11.516;2023-04-24T04:27:57;29.70;;;0.80;;
3817;SDS011;1924;48.078;11.516;2023-04-24T04:30:24;29.70;;;0.80;;
3817;SDS011;1924;48.078;11.516;2023-04-24T04:32:51;29.40;;;0.80;;
3817;SDS011;1924;48.078;11.516;2023-04-24T04:35:19;29.50;;;0.80;;
3817;SDS011;1924;48.078;11.516;2023-04-24T04:37:46;29.43;;;0.80;;
3817;SDS011;1924;48.078;11.516;2023-04-24T04:40:12;29.47;;;0.80;;
3817;SDS011;1924;48.078;11.516;2023-04-24T04:42:39;29.50;;;0.80;;
3817;SDS011;1924;48.078;11.516;2023-04-24T04:45:07;29.60;;;0.80;;
3817;SDS011;1924;48.078;11.516;2023-04-24T04:47:36;29.40;;;0.80;;
3817;SDS011;1924;48.078;11.516;2023-04-24T04:50:04;29.50;;;0.80;;
3817;SDS011;1924;48.078;11.516;2023-04-24T04:52:33;29.33;;;0.80;;
3817;SDS011;1924;48.078;11.516;2023-04-24T04:55:00;29.20;;;0.80;;
3817;SDS011;1924;48.078;11.516;2023-04-24T04:57:26;29.37;;;0.80;;
3817;SDS011;1924;48.078;11.516;2023-04-24T04:59:53;29.60;;;0.80;;
3817;SDS011;1924;48.078;11.516;2023-04-24T05:02:20;29.50;;;0.80;;
3817;SDS011;1924;48.078;11.516;2023-04-24T05:04:46;29.50;;;0.80;;
3817;SDS011;1924;48.078;11.516;2023-04-24T05:07:13;29.50;;;0.80;;
3817;SDS011;1924;48.078;11.516;2023-04-24T05:09:41;29.30;;;0.80;;
3817;SDS011;1924;48.078;11.516;2023-04-24T05:12:09;29.33;;;0.80;;
3817;SDS011;1924;48.078;11.516;2023-04-24T05:14:36;29.40;;;0.80;;
3817;SDS011;1924;48.078;11.516;2023-04-24T05:17:03;29.50;;;0.80;;
3817;SDS011;1924;48.078;11.516;2023-04-24T05:19:29;29.40;;;0.80;;
3817;SDS011;1924;48.078;11.516;2023-04-24T05:21:57;29.40;;;0.80;;
3817;SDS011;1924;48.078;11.516;2023-04-24T05:24:28;29.50;;;0.80;;
3817;SDS011;1924;48.078;11.516;2023-04-24T05:26:56;29.40;;;0.80;;
3817;SDS011;1924;48.078;11.516;2023-04-24T05:29:23;29.50;;;0.80;;
3817;SDS011;1924;48.078;11.516;2023-04-24T05:31:51;29.60;;;0.80;;
3817;SDS011;1924;48.078;11.516;2023-04-24T05:34:18;29.57;;;0.80;;
3817;SDS011;1924;48.078;11.516;2023-04-24T05:36:44;29.57;;;0.80;;
3817;SDS011;1924;48.078;11.516;2023-04-24T05:39:11;29.40;;;0.80;;
3817;SDS011;1924;48.078;11.516;2023-04-24T05:41:38;29.40;;;0.80;;
3817;SDS011;1924;48.078;11.516;2023-04-24T05:44:06;29.40;;;0.80;;
3817;SDS011;1924;48.078;11.516;2023-04-24T05:46:33;29.37;;;0.80;;
3817;SDS011;1924;48.078;11.516;2023-04-24T05:49:00;29.47;;;0.80;;
3817;SDS011;1924;48.078;11.516;2023-04-24T05:51:27;29.60;;;0.80;;
3817;SDS011;1924;48.078;11.516;2023-04-24T05:53:54;29.60;;;0.80;;
3817;SDS011;1924;48.078;11.516;2023-04-24T05:56:21;29.50;;;0.80;;
3817;SDS011;1924;48.078;11.516;2023-04-24T05:58:47;29.37;;;0.80;;
3817;SDS011;1924;48.078;11.516;2023-04-24T06:01:15;29.50;;;0.80;;
3817;SDS011;1924;48.078;11.516;2023-04-24T06:03:43;29.40;;;0.80;;
3817;SDS011;1924;48.078;11.516;2023-04-24T06:06:10;29.60;;;0.80;;
3817;SDS011;1924;48.078;11.516;2023-04-24T06:08:36;29.30;;;0.80;;
3817;SDS011;1924;48.078;11.516;2023-04-24T06:11:03;29.50;;;0.80;;
3817;SDS011;1924;48.078;11.516;2023-04-24T06:13:30;29.27;;;0.80;;
3817;SDS011;1924;48.078;11.516;2023-04-24T06:15:57;29.40;;;0.80;;
3817;SDS011;1924;48.078;11.516;2023-04-24T06:18:25;29.50;;;0.80;;
3817;SDS011;1924;48.078;11.516;2023-04-24T06:20:52;29.40;;;0.80;;
3817;SDS011;1924;48.078;11.516;2023-04-24T06:23:20;29.37;;;0.80;;
3817;SDS011;1924;48.078;11.516;2023-04-24T06:25:46;29.30;;;0.80;;
3817;SDS011;1924;48.078;11.516;2023-04-24T06:28:13;29.40;;;0.80;;
3817;SDS011;1924;48.078;11.516;2023-04-24T06:30:40;29.50;;;0.80;;
3817;SDS011;1924;48.078;11.516;2023-04-24T06:33:08;29.40;;;0.80;;
3817;SDS011;1924;48.078;11.516;2023-04-24T06:35:36;29.40;;;0.80;;
3817;SDS011;1924;48.078;11.516;2023-04-24T06:38:03;29.40;;;0.80;;
3817;SDS011;1924;48.078;11.516;2023-04-24T06:40:30;29.50;;;0.80;;
3817;SDS011;1924;48.078;11.516;2023-04-24T06:42:58;29.40;;;0.80;;
3817;SDS011;1924;48.078;11.516;2023-04-24T06:45:27;29.47;;;0.80;;
3817;SDS011;1924;48.078;11.516;2023-04-24T06:47:54;29.43;;;0.80;;
3817;SDS011;1924;48.078;11.516;2023-04-24T06:50:21;29.50;;;0.80;;
3817;SDS011;1924;48.078;11.516;2023-04-24T06:52:49;29.60;;;0.80;;
3817;SDS011;1924;48.078;11.516;2023-04-24T06:55:16;29.37;;;0.80;;
3817;SDS011;1924;48.078;11.516;2023-04-24T06:57:42;29.17;;;0.80;;
3817;SDS011;1924;48.078;11.516;2023-04-24T07:00:10;29.40;;;0.80;;
3817;SDS011;1924;48.078;11.516;2023-04-24T07:02:38;29.37;;;0.80;;
3817;SDS011;1924;48.078;11.516;2023-04-24T07:05:05;29.40;;;0.80;;
3817;SDS011;1924;48.078;11.516;2023-04-24T07:07:33;29.23;;;0.80;;
3817;SDS011;1924;48.078;11.516;2023-04-24T07:10:04;29.50;;;0.80;;
3817;SDS011;1924;48.078;11.516;2023-04-24T07:12:32;29.47;;;0.80;;
3817;SDS011;1924;48.078;11.516;2023-04-24T07:14:58;29.43;;;0.80;;
3817;SDS011;1924;48.078;11.516;2023-04-24T07:17:25;29.30;;;0.80;;
3817;SDS011;1924;48.078;11.516;2023-04-24T07:19:52;29.40;;;0.80;;
3817;SDS011;1924;48.078;11.516;2023-04-24T07:22:19;29.27;;;0.80;;
3817;SDS011;1924;48.078;11.516;2023-04-24T07:24:46;29.37;;;0.80;;
3817;SDS011;1924;48.078;11.516;2023-04-24T07:27:14;29.40;;;0.80;;
3817;SDS011;1924;48.078;11.516;2023-04-24T07:29:41;29.40;;;0.80;;
3817;SDS011;1924;48.078;11.516;2023-04-24T07:32:07;29.40;;;0.80;;
3817;SDS011;1924;48.078;11.516;2023-04-24T07:34:34;29.47;;;0.80;;
3817;SDS011;1924;48.078;11.516;2023-04-24T07:37:01;29.47;;;0.80;;
3817;SDS011;1924;48.078;11.516;2023-04-24T07:39:28;29.30;;;0.80;;
3817;SDS011;1924;48.078;11.516;2023-04-24T07:41:55;29.40;;;0.80;;
3817;SDS011;1924;48.078;11.516;2023-04-24T07:44:23;29.30;;;0.80;;
3817;SDS011;1924;48.078;11.516;2023-04-24T07:46:50;29.30;;;0.80;;
3817;SDS011;1924;48.078;11.516;2023-04-24T07:49:16;29.17;;;0.80;;
3817;SDS011;1924;48.078;11.516;2023-04-24T07:51:43;29.10;;;0.80;;
3817;SDS011;1924;48.078;11.516;2023-04-24T07:54:10;29.20;;;0.80;;
3817;SDS011;1924;48.078;11.516;2023-04-24T07:56:37;29.10;;;0.80;;
3817;SDS011;1924;48.078;11.516;2023-04-24T07:59:04;29.03;;;0.80;;
3817;SDS011;1924;48.078;11.516;2023-04-24T08:01:32;29.03;;;0.80;;
3817;SDS011;1924;48.078;11.516;2023-04-24T08:03:59;29.20;;;0.80;;
3817;SDS011;1924;48.078;11.516;2023-04-24T08:06:26;29.13;;;0.80;;
3817;SDS011;1924;48.078;11.516;2023-04-24T08:08:55;29.10;;;0.80;;
3817;SDS011;1924;48.078;11.516;2023-04-24T08:11:22;29.20;;;0.80;;
3817;SDS011;1924;48.078;11.516;2023-04-24T08:13:48;29.10;;;0.80;;
3817;SDS011;1924;48.078;11.516;2023-04-24T08:16:15;29.17;;;0.80;;
3817;SDS011;1924;48.078;11.516;2023-04-24T08:18:43;29.30;;;0.80;;
3817;SDS011;1924;48.078;11.516;2023-04-24T08:21:10;29.07;;;0.80;;
3817;SDS011;1924;48.078;11.516;2023-04-24T08:23:41;29.20;;;0.80;;
3817;SDS011;1924;48.078;11.516;2023-04-24T08:26:08;28.93;;;0.80;;
3817;SDS011;1924;48.078;11.516;2023-04-24T08:28:36;29.20;;;0.80;;
3817;SDS011;1924;48.078;11.516;2023-04-24T08:31:03;29.10;;;0.80;;
3817;SDS011;1924;48.078;11.516;2023-04-24T08:33:30;28.97;;;0.80;;
3817;SDS011;1924;48.078;11.516;2023-04-24T08:36:00;29.20;;;0.80;;
3817;SDS011;1924;48.078;11.516;2023-04-24T08:38:28;29.10;;;0.80;;
3817;SDS011;1924;48.078;11.516;2023-04-24T08:40:55;29.03;;;0.80;;
3817;SDS011;1924;48.078;11.516;2023-04-24T08:43:24;28.77;;;0.80;;
3817;SDS011;1924;48.078;11.516;2023-04-24T08:45:51;28.80;;;0.80;;
3817;SDS011;1924;48.078;11.516;2023-04-24T08:48:18;28.80;;;0.80;;
3817;SDS011;1924;48.078;11.516;2023-04-24T08:50:47;29.00;;;0.80;;
3817;SDS011;1924;48.078;11.516;2023-04-24T08:53:17;28.70;;;0.80;;
3817;SDS011;1924;48.078;11.516;2023-04-24T08:55:44;28.57;;;0.80;;
3817;SDS011;1924;48.078;11.516;2023-04-24T08:58:14;28.90;;;0.80;;
3817;SDS011;1924;48.078;11.516;2023-04-24T09:00:43;29.00;;;0.80;;
3817;SDS011;1924;48.078;11.516;2023-04-24T09:03:12;28.80;;;0.80;;
3817;SDS011;1924;48.078;11.516;2023-04-24T09:05:40;28.80;;;0.80;;
3817;SDS011;1924;48.078;11.516;2023-04-24T09:08:10;28.80;;;0.80;;
3817;SDS011;1924;48.078;11.516;2023-04-24T09:10:40;28.70;;;0.80;;
3817;SDS011;1924;48.078;11.516;2023-04-24T09:13:07;28.57;;;0.80;;
3817;SDS011;1924;48.078;11.516;2023-04-24T09:15:35;28.50;;;0.77;;
3817;SDS011;1924;48.078;11.516;2023-04-24T09:18:02;28.50;;;0.80;;
3817;SDS011;1924;48.078;11.516;2023-04-24T09:20:29;28.60;;;0.80;;
3817;SDS011;1924;48.078;11.516;2023-04-24T09:22:56;28.50;;;0.80;;
3817;SDS011;1924;48.078;11.516;2023-04-24T09:25:25;28.60;;;0.70;;
3817;SDS011;1924;48.078;11.516;2023-04-24T09:28:01;28.33;;;0.80;;
3817;SDS011;1924;48.078;11.516;2023-04-24T09:30:29;28.50;;;0.80;;
3817;SDS011;1924;48.078;11.516;2023-04-24T09:35:40;28.40;;;0.80;;
3817;SDS011;1924;48.078;11.516;2023-04-24T09:38:08;28.50;;;0.80;;
3817;SDS011;1924;48.078;11.516;2023-04-24T09:40:35;28.40;;;0.77;;
3817;SDS011;1924;48.078;11.516;2023-04-24T09:43:03;28.50;;;0.80;;
3817;SDS011;1924;48.078;11.516;2023-04-24T09:45:35;28.40;;;0.80;;
3817;SDS011;1924;48.078;11.516;2023-04-24T09:48:02;28.50;;;0.73;;
3817;SDS011;1924;48.078;11.516;2023-04-24T09:50:30;28.60;;;0.80;;
3817;SDS011;1924;48.078;11.516;2023-04-24T09:53:01;28.67;;;0.80;;
3817;SDS011;1924;48.078;11.516;2023-04-24T09:55:28;28.50;;;0.80;;
3817;SDS011;1924;48.078;11.516;2023-04-24T09:57:56;28.70;;;0.80;;
3817;SDS011;1924;48.078;11.516;2023-04-24T10:00:27;28.70;;;0.80;;
3817;SDS011;1924;48.078;11.516;2023-04-24T10:02:54;28.80;;;0.80;;
3817;SDS011;1924;48.078;11.516;2023-04-24T10:05:27;28.67;;;0.80;;
3817;SDS011;1924;48.078;11.516;2023-04-24T10:07:56;28.77;;;0.70;;
3817;SDS011;1924;48.078;11.516;2023-04-24T10:10:24;28.67;;;0.80;;
3817;SDS011;1924;48.078;11.516;2023-04-24T10:12:51;28.70;;;0.80;;
3817;SDS011;1924;48.078;11.516;2023-04-24T10:15:19;28.57;;;0.80;;
3817;SDS011;1924;48.078;11.516;2023-04-24T10:17:48;28.80;;;0.80;;
3817;SDS011;1924;48.078;11.516;2023-04-24T10:20:17;28.70;;;0.80;;
3817;SDS011;1924;48.078;11.516;2023-04-24T10:22:46;28.70;;;0.80;;
3817;SDS011;1924;48.078;11.516;2023-04-24T10:25:16;28.67;;;0.80;;
3817;SDS011;1924;48.078;11.516;2023-04-24T10:27:44;28.40;;;0.80;;
3817;SDS011;1924;48.078;11.516;2023-04-24T10:30:12;28.70;;;0.80;;
3817;SDS011;1924;48.078;11.516;2023-04-24T10:32:40;28.70;;;0.80;;
3817;SDS011;1924;48.078;11.516;2023-04-24T10:35:08;28.70;;;0.80;;
3817;SDS011;1924;48.078;11.516;2023-04-24T10:37:37;28.80;;;0.80;;
3817;SDS011;1924;48.078;11.516;2023-04-24T10:40:09;28.60;;;0.80;;
3817;SDS011;1924;48.078;11.516;2023-04-24T10:42:39;28.50;;;0.80;;
3817;SDS011;1924;48.078;11.516;2023-04-24T10:45:06;28.70;;;0.80;;
3817;SDS011;1924;48.078;11.516;2023-04-24T10:47:42;28.57;;;0.80;;
3817;SDS011;1924;48.078;11.516;2023-04-24T10:50:10;28.60;;;0.80;;
3817;SDS011;1924;48.078;11.516;2023-04-24T10:52:43;28.50;;;0.80;;
3817;SDS011;1924;48.078;11.516;2023-04-24T10:55:11;28.70;;;0.80;;
3817;SDS011;1924;48.078;11.516;2023-04-24T10:57:39;28.50;;;0.80;;
3817;SDS011;1924;48.078;11.516;2023-04-24T11:00:16;28.47;;;0.80;;
3817;SDS011;1924;48.078;11.516;2023-04-24T11:02:45;28.40;;;0.80;;
3817;SDS011;1924;48.078;11.516;2023-04-24T11:05:17;28.30;;;0.80;;
3817;SDS011;1924;48.078;11.516;2023-04-24T11:10:38;28.20;;;0.80;;
3817;SDS011;1924;48.078;11.516;2023-04-24T11:13:06;28.20;;;0.80;;
3817;SDS011;1924;48.078;11.516;2023-04-24T11:15:33;28.40;;;0.80;;
3817;SDS011;1924;48.078;11.516;2023-04-24T11:18:00;28.50;;;0.80;;
3817;SDS011;1924;48.078;11.516;2023-04-24T11:20:28;28.57;;;0.80;;
3817;SDS011;1924;48.078;11.516;2023-04-24T11:22:55;28.70;;;0.80;;
3817;SDS011;1924;48.078;11.516;2023-04-24T11:25:30;28.80;;;0.80;;
3817;SDS011;1924;48.078;11.516;2023-04-24T11:28:02;28.80;;;0.77;;
3817;SDS011;1924;48.078;11.516;2023-04-24T11:30:30;28.90;;;0.80;;
3817;SDS011;1924;48.078;11.516;2023-04-24T11:33:01;29.10;;;0.80;;
3817;SDS011;1924;48.078;11.516;2023-04-24T11:35:30;29.17;;;0.80;;
3817;SDS011;1924;48.078;11.516;2023-04-24T11:38:03;29.00;;;0.80;;
3817;SDS011;1924;48.078;11.516;2023-04-24T11:40:31;29.20;;;0.80;;
3817;SDS011;1924;48.078;11.516;2023-04-24T11:42:59;29.10;;;0.80;;
3817;SDS011;1924;48.078;11.516;2023-04-24T11:45:26;28.70;;;0.70;;
3817;SDS011;1924;48.078;11.516;2023-04-24T11:47:54;28.80;;;0.80;;
3817;SDS011;1924;48.078;11.516;2023-04-24T11:50:24;28.87;;;0.80;;
3817;SDS011;1924;48.078;11.516;2023-04-24T11:52:54;29.10;;;0.80;;
3817;SDS011;1924;48.078;11.516;2023-04-24T11:55:25;28.80;;;0.73;;
3817;SDS011;1924;48.078;11.516;2023-04-24T11:57:53;29.20;;;0.80;;
3817;SDS011;1924;48.078;11.516;2023-04-24T12:00:23;28.80;;;0.80;;
3817;SDS011;1924;48.078;11.516;2023-04-24T12:02:50;28.90;;;0.80;;
3817;SDS011;1924;48.078;11.516;2023-04-24T12:05:20;28.60;;;0.80;;
3817;SDS011;1924;48.078;11.516;2023-04-24T12:07:48;28.60;;;0.80;;
3817;SDS011;1924;48.078;11.516;2023-04-24T12:10:20;28.60;;;0.80;;
3817;SDS011;1924;48.078;11.516;2023-04-24T12:12:47;28.70;;;0.80;;
3817;SDS011;1924;48.078;11.516;2023-04-24T12:15:16;28.50;;;0.80;;
3817;SDS011;1924;48.078;11.516;2023-04-24T12:17:44;28.50;;;0.80;;
3817;SDS011;1924;48.078;11.516;2023-04-24T12:20:11;28.40;;;0.80;;
3817;SDS011;1924;48.078;11.516;2023-04-24T12:22:46;28.40;;;0.80;;
3817;SDS011;1924;48.078;11.516;2023-04-24T12:25:13;28.30;;;0.80;;
3817;SDS011;1924;48.078;11.516;2023-04-24T12:27:44;28.40;;;0.80;;
3817;SDS011;1924;48.078;11.516;2023-04-24T12:30:13;28.60;;;0.80;;
3817;SDS011;1924;48.078;11.516;2023-04-24T12:32:41;28.50;;;0.80;;
3817;SDS011;1924;48.078;11.516;2023-04-24T12:35:09;28.57;;;0.70;;
3817;SDS011;1924;48.078;11.516;2023-04-24T12:37:35;28.40;;;0.80;;
3817;SDS011;1924;48.078;11.516;2023-04-24T12:40:05;28.43;;;0.80;;
3817;SDS011;1924;48.078;11.516;2023-04-24T12:42:33;28.20;;;0.80;;
3817;SDS011;1924;48.078;11.516;2023-04-24T12:45:02;28.50;;;0.80;;
3817;SDS011;1924;48.078;11.516;2023-04-24T12:47:31;28.50;;;0.80;;
3817;SDS011;1924;48.078;11.516;2023-04-24T12:49:58;28.40;;;0.80;;
3817;SDS011;1924;48.078;11.516;2023-04-24T12:52:26;28.30;;;0.80;;
3817;SDS011;1924;48.078;11.516;2023-04-24T12:54:54;28.30;;;0.80;;
3817;SDS011;1924;48.078;11.516;2023-04-24T12:57:22;28.30;;;0.80;;
3817;SDS011;1924;48.078;11.516;2023-04-24T12:59:49;28.20;;;0.80;;
3817;SDS011;1924;48.078;11.516;2023-04-24T13:02:18;28.30;;;0.80;;
3817;SDS011;1924;48.078;11.516;2023-04-24T13:04:45;28.20;;;0.80;;
3817;SDS011;1924;48.078;11.516;2023-04-24T13:07:12;28.20;;;0.70;;
3817;SDS011;1924;48.078;11.516;2023-04-24T13:09:39;28.40;;;0.80;;
3817;SDS011;1924;48.078;11.516;2023-04-24T13:12:06;28.40;;;0.77;;
3817;SDS011;1924;48.078;11.516;2023-04-24T13:14:33;28.50;;;0.80;;
3817;SDS011;1924;48.078;11.516;2023-04-24T13:17:00;28.40;;;0.80;;
3817;SDS011;1924;48.078;11.516;2023-04-24T13:19:29;28.53;;;0.80;;
3817;SDS011;1924;48.078;11.516;2023-04-24T13:21:56;28.70;;;0.80;;
3817;SDS011;1924;48.078;11.516;2023-04-24T13:24:24;28.50;;;0.80;;
3817;SDS011;1924;48.078;11.516;2023-04-24T13:26:51;28.60;;;0.77;;
3817;SDS011;1924;48.078;11.516;2023-04-24T13:29:18;28.60;;;0.80;;
3817;SDS011;1924;48.078;11.516;2023-04-24T13:31:45;28.70;;;0.80;;
3817;SDS011;1924;48.078;11.516;2023-04-24T13:34:12;28.60;;;0.77;;
3817;SDS011;1924;48.078;11.516;2023-04-24T13:36:41;28.47;;;0.70;;
3817;SDS011;1924;48.078;11.516;2023-04-24T13:39:07;28.50;;;0.80;;
3817;SDS011;1924;48.078;11.516;2023-04-24T13:41:35;28.40;;;0.80;;
3817;SDS011;1924;48.078;11.516;2023-04-24T13:44:02;28.60;;;0.70;;
3817;SDS011;1924;48.078;11.516;2023-04-24T13:46:29;28.47;;;0.80;;
3817;SDS011;1924;48.078;11.516;2023-04-24T13:48:57;28.50;;;0.80;;
3817;SDS011;1924;48.078;11.516;2023-04-24T13:51:24;28.40;;;0.80;;
3817;SDS011;1924;48.078;11.516;2023-04-24T13:53:54;28.40;;;0.80;;
3817;SDS011;1924;48.078;11.516;2023-04-24T13:56:21;28.30;;;0.80;;
3817;SDS011;1924;48.078;11.516;2023-04-24T13:58:48;28.50;;;0.80;;
3817;SDS011;1924;48.078;11.516;2023-04-24T14:01:15;28.50;;;0.80;;
3817;SDS011;1924;48.078;11.516;2023-04-24T14:03:42;28.40;;;0.77;;
3817;SDS011;1924;48.078;11.516;2023-04-24T14:06:09;28.30;;;0.80;;
3817;SDS011;1924;48.078;11.516;2023-04-24T14:08:36;28.60;;;0.77;;
3817;SDS011;1924;48.078;11.516;2023-04-24T14:11:04;28.67;;;0.80;;
3817;SDS011;1924;48.078;11.516;2023-04-24T14:13:31;28.70;;;0.80;;
3817;SDS011;1924;48.078;11.516;2023-04-24T14:15:58;28.60;;;0.70;;
3817;SDS011;1924;48.078;11.516;2023-04-24T14:18:24;28.47;;;0.80;;
3817;SDS011;1924;48.078;11.516;2023-04-24T14:20:51;28.67;;;0.80;;
3817;SDS011;1924;48.078;11.516;2023-04-24T14:23:18;28.60;;;0.80;;
3817;SDS011;1924;48.078;11.516;2023-04-24T14:25:45;28.50;;;0.77;;
3817;SDS011;1924;48.078;11.516;2023-04-24T14:28:17;28.60;;;0.80;;
3817;SDS011;1924;48.078;11.516;2023-04-24T14:30:44;28.60;;;0.80;;
3817;SDS011;1924;48.078;11.516;2023-04-24T14:33:10;28.77;;;0.80;;
3817;SDS011;1924;48.078;11.516;2023-04-24T14:35:38;28.43;;;0.80;;
3817;SDS011;1924;48.078;11.516;2023-04-24T14:38:07;28.40;;;0.80;;
3817;SDS011;1924;48.078;11.516;2023-04-24T14:40:33;28.50;;;0.80;;
3817;SDS011;1924;48.078;11.516;2023-04-24T14:43:00;28.50;;;0.70;;
3817;SDS011;1924;48.078;11.516;2023-04-24T14:45:28;28.43;;;0.77;;
3817;SDS011;1924;48.078;11.516;2023-04-24T14:47:55;28.60;;;0.80;;
3817;SDS011;1924;48.078;11.516;2023-04-24T14:50:23;28.50;;;0.80;;
3817;SDS011;1924;48.078;11.516;2023-04-24T14:52:52;28.30;;;0.70;;
3817;SDS011;1924;48.078;11.516;2023-04-24T14:55:19;28.50;;;0.80;;
3817;SDS011;1924;48.078;11.516;2023-04-24T14:57:46;28.50;;;0.70;;
3817;SDS011;1924;48.078;11.516;2023-04-24T15:00:13;28.60;;;0.77;;
3817;SDS011;1924;48.078;11.516;2023-04-24T15:02:43;28.60;;;0.80;;
3817;SDS011;1924;48.078;11.516;2023-04-24T15:05:10;28.70;;;0.70;;
3817;SDS011;1924;48.078;11.516;2023-04-24T15:07:37;28.80;;;0.77;;
3817;SDS011;1924;48.078;11.516;2023-04-24T15:10:04;28.50;;;0.80;;
3817;SDS011;1924;48.078;11.516;2023-04-24T15:12:31;28.60;;;0.73;;
3817;SDS011;1924;48.078;11.516;2023-04-24T15:14:59;28.43;;;0.80;;
3817;SDS011;1924;48.078;11.516;2023-04-24T15:17:26;28.60;;;0.80;;
3817;SDS011;1924;48.078;11.516;2023-04-24T15:19:54;28.50;;;0.80;;
3817;SDS011;1924;48.078;11.516;2023-04-24T15:22:21;28.50;;;0.73;;
3817;SDS011;1924;48.078;11.516;2023-04-24T15:24:48;28.50;;;0.77;;
3817;SDS011;1924;48.078;11.516;2023-04-24T15:27:15;28.60;;;0.80;;
3817;SDS011;1924;48.078;11.516;2023-04-24T15:29:42;28.60;;;0.80;;
3817;SDS011;1924;48.078;11.516;2023-04-24T15:32:09;28.60;;;0.80;;
3817;SDS011;1924;48.078;11.516;2023-04-24T15:34:36;28.70;;;0.80;;
3817;SDS011;1924;48.078;11.516;2023-04-24T15:37:04;28.70;;;0.80;;
3817;SDS011;1924;48.078;11.516;2023-04-24T15:39:31;28.60;;;0.80;;
3817;SDS011;1924;48.078;11.516;2023-04-24T15:41:58;28.47;;;0.80;;
3817;SDS011;1924;48.078;11.516;2023-04-24T15:44:25;28.60;;;0.77;;
3817;SDS011;1924;48.078;11.516;2023-04-24T15:46:52;28.47;;;0.70;;
3817;SDS011;1924;48.078;11.516;2023-04-24T15:49:18;28.57;;;0.80;;
3817;SDS011;1924;48.078;11.516;2023-04-24T15:51:45;28.57;;;0.73;;
3817;SDS011;1924;48.078;11.516;2023-04-24T15:54:13;28.87;;;0.70;;
3817;SDS011;1924;48.078;11.516;2023-04-24T15:56:40;28.80;;;0.80;;
3817;SDS011;1924;48.078;11.516;2023-04-24T15:59:06;29.00;;;0.80;;
3817;SDS011;1924;48.078;11.516;2023-04-24T16:01:33;28.90;;;0.80;;
3817;SDS011;1924;48.078;11.516;2023-04-24T16:04:00;28.80;;;0.80;;
3817;SDS011;1924;48.078;11.516;2023-04-24T16:06:27;28.70;;;0.80;;
3817;SDS011;1924;48.078;11.516;2023-04-24T16:08:53;28.80;;;0.73;;
3817;SDS011;1924;48.078;11.516;2023-04-24T16:11:21;28.80;;;0.80;;
3817;SDS011;1924;48.078;11.516;2023-04-24T16:13:48;28.90;;;0.80;;
3817;SDS011;1924;48.078;11.516;2023-04-24T16:16:15;28.70;;;0.80;;
3817;SDS011;1924;48.078;11.516;2023-04-24T16:18:42;28.90;;;0.80;;
3817;SDS011;1924;48.078;11.516;2023-04-24T16:21:08;28.50;;;0.80;;
3817;SDS011;1924;48.078;11.516;2023-04-24T16:23:35;28.70;;;0.80;;
3817;SDS011;1924;48.078;11.516;2023-04-24T16:26:02;28.60;;;0.80;;
3817;SDS011;1924;48.078;11.516;2023-04-24T16:28:30;28.70;;;0.80;;
3817;SDS011;1924;48.078;11.516;2023-04-24T16:30:57;28.60;;;0.80;;
3817;SDS011;1924;48.078;11.516;2023-04-24T16:33:23;28.60;;;0.80;;
3817;SDS011;1924;48.078;11.516;2023-04-24T16:35:50;28.60;;;0.80;;
3817;SDS011;1924;48.078;11.516;2023-04-24T16:38:17;28.70;;;0.80;;
3817;SDS011;1924;48.078;11.516;2023-04-24T16:40:44;28.60;;;0.80;;
3817;SDS011;1924;48.078;11.516;2023-04-24T16:43:10;28.70;;;0.80;;
3817;SDS011;1924;48.078;11.516;2023-04-24T16:45:38;28.50;;;0.80;;
3817;SDS011;1924;48.078;11.516;2023-04-24T16:48:05;28.47;;;0.77;;
3817;SDS011;1924;48.078;11.516;2023-04-24T16:50:35;28.70;;;0.80;;
3817;SDS011;1924;48.078;11.516;2023-04-24T16:53:02;28.70;;;0.80;;
3817;SDS011;1924;48.078;11.516;2023-04-24T16:55:29;28.60;;;0.80;;
3817;SDS011;1924;48.078;11.516;2023-04-24T16:57:56;28.60;;;0.80;;
3817;SDS011;1924;48.078;11.516;2023-04-24T17:00:22;28.60;;;0.80;;
3817;SDS011;1924;48.078;11.516;2023-04-24T17:02:51;28.70;;;0.80;;
3817;SDS011;1924;48.078;11.516;2023-04-24T17:05:17;28.40;;;0.80;;
3817;SDS011;1924;48.078;11.516;2023-04-24T17:07:47;28.70;;;0.80;;
3817;SDS011;1924;48.078;11.516;2023-04-24T17:10:13;28.60;;;0.77;;
3817;SDS011;1924;48.078;11.516;2023-04-24T17:12:40;28.60;;;0.80;;
3817;SDS011;1924;48.078;11.516;2023-04-24T17:15:07;28.60;;;0.80;;
3817;SDS011;1924;48.078;11.516;2023-04-24T17:17:34;28.60;;;0.80;;
3817;SDS011;1924;48.078;11.516;2023-04-24T17:20:03;28.70;;;0.80;;
3817;SDS011;1924;48.078;11.516;2023-04-24T17:22:30;28.70;;;0.80;;
3817;SDS011;1924;48.078;11.516;2023-04-24T17:24:57;28.47;;;0.80;;
3817;SDS011;1924;48.078;11.516;2023-04-24T17:27:23;28.50;;;0.80;;
3817;SDS011;1924;48.078;11.516;2023-04-24T17:29:50;28.50;;;0.80;;
3817;SDS011;1924;48.078;11.516;2023-04-24T17:32:17;28.37;;;0.80;;
3817;SDS011;1924;48.078;11.516;2023-04-24T17:34:44;28.50;;;0.80;;
3817;SDS011;1924;48.078;11.516;2023-04-24T17:37:13;28.50;;;0.80;;
3817;SDS011;1924;48.078;11.516;2023-04-24T17:39:40;28.50;;;0.80;;
3817;SDS011;1924;48.078;11.516;2023-04-24T17:42:06;28.40;;;0.80;;
3817;SDS011;1924;48.078;11.516;2023-04-24T17:44:33;28.40;;;0.80;;
3817;SDS011;1924;48.078;11.516;2023-04-24T17:47:00;28.47;;;0.80;;
3817;SDS011;1924;48.078;11.516;2023-04-24T17:49:28;28.57;;;0.80;;
3817;SDS011;1924;48.078;11.516;2023-04-24T17:51:55;28.40;;;0.80;;
3817;SDS011;1924;48.078;11.516;2023-04-24T17:54:23;28.40;;;0.80;;
3817;SDS011;1924;48.078;11.516;2023-04-24T17:56:50;28.50;;;0.80;;
3817;SDS011;1924;48.078;11.516;2023-04-24T17:59:17;28.50;;;0.80;;
3817;SDS011;1924;48.078;11.516;2023-04-24T18:01:44;28.30;;;0.80;;
3817;SDS011;1924;48.078;11.516;2023-04-24T18:04:11;28.40;;;0.80;;
3817;SDS011;1924;48.078;11.516;2023-04-24T18:06:38;28.40;;;0.80;;
3817;SDS011;1924;48.078;11.516;2023-04-24T18:09:04;28.30;;;0.80;;
3817;SDS011;1924;48.078;11.516;2023-04-24T18:11:33;28.40;;;0.80;;
3817;SDS011;1924;48.078;11.516;2023-04-24T18:14:00;28.20;;;0.80;;
3817;SDS011;1924;48.078;11.516;2023-04-24T18:16:27;28.40;;;0.80;;
3817;SDS011;1924;48.078;11.516;2023-04-24T18:18:54;28.50;;;0.80;;
3817;SDS011;1924;48.078;11.516;2023-04-24T18:21:20;28.40;;;0.80;;
3817;SDS011;1924;48.078;11.516;2023-04-24T18:23:49;28.40;;;0.80;;
3817;SDS011;1924;48.078;11.516;2023-04-24T18:26:16;28.20;;;0.80;;
3817;SDS011;1924;48.078;11.516;2023-04-24T18:28:44;28.47;;;0.80;;
3817;SDS011;1924;48.078;11.516;2023-04-24T18:31:11;28.40;;;0.80;;
3817;SDS011;1924;48.078;11.516;2023-04-24T18:33:38;28.50;;;0.80;;
3817;SDS011;1924;48.078;11.516;2023-04-24T18:36:04;28.60;;;0.80;;
3817;SDS011;1924;48.078;11.516;2023-04-24T18:38:31;28.40;;;0.80;;
3817;SDS011;1924;48.078;11.516;2023-04-24T18:40:58;28.30;;;0.80;;
3817;SDS011;1924;48.078;11.516;2023-04-24T18:43:24;28.50;;;0.80;;
3817;SDS011;1924;48.078;11.516;2023-04-24T18:45:53;28.30;;;0.80;;
3817;SDS011;1924;48.078;11.516;2023-04-24T18:48:20;28.50;;;0.80;;
3817;SDS011;1924;48.078;11.516;2023-04-24T18:50:46;28.40;;;0.80;;
3817;SDS011;1924;48.078;11.516;2023-04-24T18:53:13;28.50;;;0.80;;
3817;SDS011;1924;48.078;11.516;2023-04-24T18:55:42;28.30;;;0.80;;